KSWO/SWO METAR and TAF weather

Enter ICAO airport designator
Station Type Date Time Source
KSWO METAR 2020/09/20 09:53 UTC NOAA

KSWO 200953Z AUTO 00000KT 9SM CLR 12/11 A3017 RMK AO2 SLP209 T01220106


Station Type Date Time Source
KSWO Decoded METAR 2020/09/20 09:53 UTC NOAA

STILLWATER REGIONAL AIRPORT, OK, United States (KSWO) 36-10N 97-05W 290M
Sep 20, 2020 - 05:53 AM EDT / 2020.09.20 0953 UTC
Wind: Calm:0
Visibility: 9 mile(s):0
Sky conditions: clear
Temperature: 54.0 F (12.2 C)
Dew Point: 51.1 F (10.6 C)
Relative Humidity: 89%
Pressure (altimeter): 30.17 in. Hg (1021 hPa)
ob: KSWO 200953Z AUTO 00000KT 9SM CLR 12/11 A3017 RMK AO2 SLP209 T01220106
cycle: 10

Station Type Date Time Source
KSWO TAF 2020/09/20 06:22 UTC NOAA

TAF KSWO 200520Z 2006/2106 14007KT P6SM FEW250

Example: see airport list